sensor_id;sensor_type;location;lat;lon;timestamp;P1;durP1;ratioP1;P2;durP2;ratioP2
54919;SDS011;63804;53.120;8.764;2023-07-31T00:02:14;7.13;;;2.50;;
54919;SDS011;63804;53.120;8.764;2023-07-31T00:04:41;10.90;;;2.80;;
54919;SDS011;63804;53.120;8.764;2023-07-31T00:07:08;7.03;;;2.38;;
54919;SDS011;63804;53.120;8.764;2023-07-31T00:09:36;7.70;;;2.40;;
54919;SDS011;63804;53.120;8.764;2023-07-31T00:12:03;5.80;;;2.08;;
54919;SDS011;63804;53.120;8.764;2023-07-31T00:14:31;8.15;;;2.42;;
54919;SDS011;63804;53.120;8.764;2023-07-31T00:16:58;6.10;;;1.90;;
54919;SDS011;63804;53.120;8.764;2023-07-31T00:19:25;8.45;;;2.35;;
54919;SDS011;63804;53.120;8.764;2023-07-31T00:21:53;8.18;;;2.33;;
54919;SDS011;63804;53.120;8.764;2023-07-31T00:24:20;8.02;;;2.30;;
54919;SDS011;63804;53.120;8.764;2023-07-31T00:26:48;7.38;;;2.00;;
54919;SDS011;63804;53.120;8.764;2023-07-31T00:29:15;6.00;;;1.83;;
54919;SDS011;63804;53.120;8.764;2023-07-31T00:31:43;5.47;;;1.90;;
54919;SDS011;63804;53.120;8.764;2023-07-31T00:34:10;6.82;;;1.77;;
54919;SDS011;63804;53.120;8.764;2023-07-31T00:36:37;6.43;;;2.10;;
54919;SDS011;63804;53.120;8.764;2023-07-31T00:39:05;5.43;;;2.10;;
54919;SDS011;63804;53.120;8.764;2023-07-31T00:41:32;5.22;;;2.00;;
54919;SDS011;63804;53.120;8.764;2023-07-31T00:44:00;7.00;;;2.05;;
54919;SDS011;63804;53.120;8.764;2023-07-31T00:46:27;5.35;;;1.90;;
54919;SDS011;63804;53.120;8.764;2023-07-31T00:48:55;4.88;;;1.73;;
54919;SDS011;63804;53.120;8.764;2023-07-31T00:51:22;5.40;;;1.85;;
54919;SDS011;63804;53.120;8.764;2023-07-31T00:53:50;4.45;;;1.80;;
54919;SDS011;63804;53.120;8.764;2023-07-31T00:56:18;4.53;;;1.70;;
54919;SDS011;63804;53.120;8.764;2023-07-31T00:58:45;6.35;;;2.00;;
54919;SDS011;63804;53.120;8.764;2023-07-31T01:01:13;5.10;;;1.83;;
54919;SDS011;63804;53.120;8.764;2023-07-31T01:03:40;5.35;;;1.90;;
54919;SDS011;63804;53.120;8.764;2023-07-31T01:06:15;5.05;;;1.80;;
54919;SDS011;63804;53.120;8.764;2023-07-31T01:08:54;4.60;;;1.98;;
54919;SDS011;63804;53.120;8.764;2023-07-31T01:11:49;5.47;;;1.70;;
54919;SDS011;63804;53.120;8.764;2023-07-31T01:14:23;4.43;;;1.70;;
54919;SDS011;63804;53.120;8.764;2023-07-31T01:16:50;5.32;;;1.80;;
54919;SDS011;63804;53.120;8.764;2023-07-31T01:19:18;5.22;;;2.00;;
54919;SDS011;63804;53.120;8.764;2023-07-31T01:26:58;4.55;;;1.70;;
54919;SDS011;63804;53.120;8.764;2023-07-31T01:29:55;5.22;;;1.85;;
54919;SDS011;63804;53.120;8.764;2023-07-31T01:32:27;5.20;;;1.83;;
54919;SDS011;63804;53.120;8.764;2023-07-31T01:34:57;6.30;;;1.85;;
54919;SDS011;63804;53.120;8.764;2023-07-31T01:37:29;7.18;;;2.00;;
54919;SDS011;63804;53.120;8.764;2023-07-31T01:39:57;4.75;;;1.70;;
54919;SDS011;63804;53.120;8.764;2023-07-31T01:42:24;3.45;;;1.70;;
54919;SDS011;63804;53.120;8.764;2023-07-31T01:44:51;4.72;;;1.73;;
54919;SDS011;63804;53.120;8.764;2023-07-31T01:47:18;4.97;;;2.00;;
54919;SDS011;63804;53.120;8.764;2023-07-31T01:49:46;5.85;;;1.90;;
54919;SDS011;63804;53.120;8.764;2023-07-31T01:52:13;4.05;;;1.63;;
54919;SDS011;63804;53.120;8.764;2023-07-31T01:54:41;4.70;;;1.73;;
54919;SDS011;63804;53.120;8.764;2023-07-31T01:57:08;5.28;;;2.00;;
54919;SDS011;63804;53.120;8.764;2023-07-31T01:59:35;5.32;;;1.50;;
54919;SDS011;63804;53.120;8.764;2023-07-31T02:02:02;5.72;;;1.73;;
54919;SDS011;63804;53.120;8.764;2023-07-31T02:04:30;5.80;;;1.48;;
54919;SDS011;63804;53.120;8.764;2023-07-31T02:06:57;4.10;;;1.70;;
54919;SDS011;63804;53.120;8.764;2023-07-31T02:09:25;4.65;;;1.70;;
54919;SDS011;63804;53.120;8.764;2023-07-31T02:11:52;4.53;;;1.85;;
54919;SDS011;63804;53.120;8.764;2023-07-31T02:14:19;4.50;;;1.70;;
54919;SDS011;63804;53.120;8.764;2023-07-31T02:16:46;6.22;;;1.83;;
54919;SDS011;63804;53.120;8.764;2023-07-31T02:19:14;3.25;;;1.70;;
54919;SDS011;63804;53.120;8.764;2023-07-31T02:21:41;4.10;;;1.60;;
54919;SDS011;63804;53.120;8.764;2023-07-31T02:24:08;4.85;;;1.70;;
54919;SDS011;63804;53.120;8.764;2023-07-31T02:26:36;3.58;;;1.58;;
54919;SDS011;63804;53.120;8.764;2023-07-31T02:29:03;4.28;;;1.55;;
54919;SDS011;63804;53.120;8.764;2023-07-31T02:31:31;3.15;;;1.58;;
54919;SDS011;63804;53.120;8.764;2023-07-31T02:33:58;2.90;;;1.50;;
54919;SDS011;63804;53.120;8.764;2023-07-31T02:36:25;3.72;;;1.65;;
54919;SDS011;63804;53.120;8.764;2023-07-31T02:38:53;4.15;;;1.80;;
54919;SDS011;63804;53.120;8.764;2023-07-31T02:41:20;4.07;;;1.92;;
54919;SDS011;63804;53.120;8.764;2023-07-31T02:43:48;5.78;;;2.10;;
54919;SDS011;63804;53.120;8.764;2023-07-31T02:46:15;4.88;;;1.90;;
54919;SDS011;63804;53.120;8.764;2023-07-31T02:48:42;3.78;;;1.67;;
54919;SDS011;63804;53.120;8.764;2023-07-31T02:51:10;4.28;;;1.63;;
54919;SDS011;63804;53.120;8.764;2023-07-31T02:53:37;3.42;;;1.83;;
54919;SDS011;63804;53.120;8.764;2023-07-31T02:56:04;4.50;;;2.13;;
54919;SDS011;63804;53.120;8.764;2023-07-31T02:58:32;4.45;;;2.13;;
54919;SDS011;63804;53.120;8.764;2023-07-31T03:00:59;3.92;;;1.98;;
54919;SDS011;63804;53.120;8.764;2023-07-31T03:03:27;4.32;;;2.10;;
54919;SDS011;63804;53.120;8.764;2023-07-31T03:05:54;3.25;;;1.92;;
54919;SDS011;63804;53.120;8.764;2023-07-31T03:08:22;3.97;;;1.67;;
54919;SDS011;63804;53.120;8.764;2023-07-31T03:10:50;5.05;;;2.15;;
54919;SDS011;63804;53.120;8.764;2023-07-31T03:13:17;4.00;;;1.83;;
54919;SDS011;63804;53.120;8.764;2023-07-31T03:15:44;4.75;;;2.13;;
54919;SDS011;63804;53.120;8.764;2023-07-31T03:18:12;4.70;;;2.10;;
54919;SDS011;63804;53.120;8.764;2023-07-31T03:20:43;4.82;;;1.83;;
54919;SDS011;63804;53.120;8.764;2023-07-31T03:23:11;5.22;;;1.85;;
54919;SDS011;63804;53.120;8.764;2023-07-31T03:25:38;3.33;;;1.90;;
54919;SDS011;63804;53.120;8.764;2023-07-31T03:28:06;4.93;;;2.00;;
54919;SDS011;63804;53.120;8.764;2023-07-31T03:30:35;4.10;;;2.03;;
54919;SDS011;63804;53.120;8.764;2023-07-31T03:33:05;5.03;;;1.88;;
54919;SDS011;63804;53.120;8.764;2023-07-31T03:35:32;4.07;;;1.88;;
54919;SDS011;63804;53.120;8.764;2023-07-31T03:37:59;3.50;;;2.08;;
54919;SDS011;63804;53.120;8.764;2023-07-31T03:40:27;3.40;;;1.95;;
54919;SDS011;63804;53.120;8.764;2023-07-31T03:42:54;5.47;;;1.92;;
54919;SDS011;63804;53.120;8.764;2023-07-31T03:45:21;2.95;;;1.70;;
54919;SDS011;63804;53.120;8.764;2023-07-31T03:47:49;4.97;;;2.20;;
54919;SDS011;63804;53.120;8.764;2023-07-31T03:50:16;3.92;;;2.03;;
54919;SDS011;63804;53.120;8.764;2023-07-31T03:52:43;3.60;;;1.90;;
54919;SDS011;63804;53.120;8.764;2023-07-31T03:55:11;4.53;;;1.90;;
54919;SDS011;63804;53.120;8.764;2023-07-31T03:57:38;3.65;;;2.00;;
54919;SDS011;63804;53.120;8.764;2023-07-31T04:00:05;3.70;;;1.83;;
54919;SDS011;63804;53.120;8.764;2023-07-31T04:02:33;3.95;;;2.15;;
54919;SDS011;63804;53.120;8.764;2023-07-31T04:05:01;3.60;;;1.90;;
54919;SDS011;63804;53.120;8.764;2023-07-31T04:07:29;3.65;;;1.98;;
54919;SDS011;63804;53.120;8.764;2023-07-31T04:09:56;4.25;;;1.95;;
54919;SDS011;63804;53.120;8.764;2023-07-31T04:12:24;4.50;;;1.90;;
54919;SDS011;63804;53.120;8.764;2023-07-31T04:14:51;4.80;;;1.90;;
54919;SDS011;63804;53.120;8.764;2023-07-31T04:17:18;3.65;;;2.15;;
54919;SDS011;63804;53.120;8.764;2023-07-31T04:19:46;5.60;;;2.03;;
54919;SDS011;63804;53.120;8.764;2023-07-31T04:22:13;2.60;;;1.70;;
54919;SDS011;63804;53.120;8.764;2023-07-31T04:24:40;4.53;;;1.90;;
54919;SDS011;63804;53.120;8.764;2023-07-31T04:27:08;3.92;;;1.95;;
54919;SDS011;63804;53.120;8.764;2023-07-31T04:29:37;3.33;;;1.90;;
54919;SDS011;63804;53.120;8.764;2023-07-31T04:32:06;3.30;;;2.20;;
54919;SDS011;63804;53.120;8.764;2023-07-31T04:34:34;4.15;;;2.00;;
54919;SDS011;63804;53.120;8.764;2023-07-31T04:37:01;3.78;;;2.10;;
54919;SDS011;63804;53.120;8.764;2023-07-31T04:39:29;3.90;;;1.90;;
54919;SDS011;63804;53.120;8.764;2023-07-31T04:41:56;4.47;;;2.10;;
54919;SDS011;63804;53.120;8.764;2023-07-31T04:44:23;2.22;;;1.50;;
54919;SDS011;63804;53.120;8.764;2023-07-31T04:46:50;3.72;;;1.80;;
54919;SDS011;63804;53.120;8.764;2023-07-31T04:49:18;4.00;;;2.13;;
54919;SDS011;63804;53.120;8.764;2023-07-31T04:51:46;3.38;;;1.85;;
54919;SDS011;63804;53.120;8.764;2023-07-31T04:54:13;3.20;;;1.88;;
54919;SDS011;63804;53.120;8.764;2023-07-31T04:56:42;3.72;;;2.10;;
54919;SDS011;63804;53.120;8.764;2023-07-31T04:59:09;4.88;;;2.67;;
54919;SDS011;63804;53.120;8.764;2023-07-31T05:01:36;9.18;;;3.33;;
54919;SDS011;63804;53.120;8.764;2023-07-31T05:04:04;7.28;;;3.45;;
54919;SDS011;63804;53.120;8.764;2023-07-31T05:06:31;6.20;;;2.50;;
54919;SDS011;63804;53.120;8.764;2023-07-31T05:08:58;3.28;;;2.00;;
54919;SDS011;63804;53.120;8.764;2023-07-31T05:11:26;3.50;;;1.63;;
54919;SDS011;63804;53.120;8.764;2023-07-31T05:13:53;2.55;;;1.58;;
54919;SDS011;63804;53.120;8.764;2023-07-31T05:16:20;2.65;;;1.60;;
54919;SDS011;63804;53.120;8.764;2023-07-31T05:18:48;1.88;;;1.33;;
54919;SDS011;63804;53.120;8.764;2023-07-31T05:21:15;3.20;;;1.35;;
54919;SDS011;63804;53.120;8.764;2023-07-31T05:23:42;2.05;;;1.25;;
54919;SDS011;63804;53.120;8.764;2023-07-31T05:26:09;2.15;;;1.52;;
54919;SDS011;63804;53.120;8.764;2023-07-31T05:28:37;3.60;;;1.30;;
54919;SDS011;63804;53.120;8.764;2023-07-31T05:31:05;2.70;;;1.33;;
54919;SDS011;63804;53.120;8.764;2023-07-31T05:33:33;3.00;;;1.30;;
54919;SDS011;63804;53.120;8.764;2023-07-31T05:36:01;3.30;;;1.33;;
54919;SDS011;63804;53.120;8.764;2023-07-31T05:38:28;3.70;;;1.10;;
54919;SDS011;63804;53.120;8.764;2023-07-31T05:40:56;3.28;;;1.30;;
54919;SDS011;63804;53.120;8.764;2023-07-31T05:43:24;1.17;;;0.90;;
54919;SDS011;63804;53.120;8.764;2023-07-31T05:45:51;1.80;;;0.80;;
54919;SDS011;63804;53.120;8.764;2023-07-31T05:48:18;3.00;;;1.50;;
54919;SDS011;63804;53.120;8.764;2023-07-31T05:50:46;1.75;;;1.15;;
54919;SDS011;63804;53.120;8.764;2023-07-31T05:53:13;1.50;;;0.95;;
54919;SDS011;63804;53.120;8.764;2023-07-31T05:55:40;1.77;;;1.00;;
54919;SDS011;63804;53.120;8.764;2023-07-31T05:58:07;0.95;;;0.85;;
54919;SDS011;63804;53.120;8.764;2023-07-31T06:00:35;0.95;;;0.77;;
54919;SDS011;63804;53.120;8.764;2023-07-31T06:03:02;2.60;;;0.88;;
54919;SDS011;63804;53.120;8.764;2023-07-31T06:05:30;1.30;;;1.00;;
54919;SDS011;63804;53.120;8.764;2023-07-31T06:07:57;1.85;;;1.00;;
54919;SDS011;63804;53.120;8.764;2023-07-31T06:10:24;1.80;;;0.90;;
54919;SDS011;63804;53.120;8.764;2023-07-31T06:12:52;1.42;;;1.02;;
54919;SDS011;63804;53.120;8.764;2023-07-31T06:15:20;1.67;;;1.08;;
54919;SDS011;63804;53.120;8.764;2023-07-31T06:17:48;2.42;;;1.20;;
54919;SDS011;63804;53.120;8.764;2023-07-31T06:20:15;1.23;;;1.10;;
54919;SDS011;63804;53.120;8.764;2023-07-31T06:22:43;1.77;;;1.20;;
54919;SDS011;63804;53.120;8.764;2023-07-31T06:25:10;1.25;;;1.10;;
54919;SDS011;63804;53.120;8.764;2023-07-31T06:27:41;1.48;;;1.17;;
54919;SDS011;63804;53.120;8.764;2023-07-31T06:30:08;1.63;;;0.90;;
54919;SDS011;63804;53.120;8.764;2023-07-31T06:32:36;1.40;;;1.00;;
54919;SDS011;63804;53.120;8.764;2023-07-31T06:35:04;1.42;;;0.90;;
54919;SDS011;63804;53.120;8.764;2023-07-31T06:37:31;1.95;;;0.88;;
54919;SDS011;63804;53.120;8.764;2023-07-31T06:40:02;1.58;;;1.00;;
54919;SDS011;63804;53.120;8.764;2023-07-31T06:42:32;2.03;;;1.15;;
54919;SDS011;63804;53.120;8.764;2023-07-31T06:44:59;1.88;;;1.00;;
54919;SDS011;63804;53.120;8.764;2023-07-31T06:47:26;2.40;;;1.15;;
54919;SDS011;63804;53.120;8.764;2023-07-31T06:49:54;1.08;;;0.90;;
54919;SDS011;63804;53.120;8.764;2023-07-31T06:52:22;1.55;;;0.90;;
54919;SDS011;63804;53.120;8.764;2023-07-31T06:55:02;1.05;;;0.88;;
54919;SDS011;63804;53.120;8.764;2023-07-31T06:57:44;1.70;;;0.93;;
54919;SDS011;63804;53.120;8.764;2023-07-31T07:00:12;1.75;;;1.02;;
54919;SDS011;63804;53.120;8.764;2023-07-31T07:02:40;2.58;;;1.10;;
54919;SDS011;63804;53.120;8.764;2023-07-31T07:05:08;0.98;;;0.60;;
54919;SDS011;63804;53.120;8.764;2023-07-31T07:07:36;2.63;;;0.88;;
54919;SDS011;63804;53.120;8.764;2023-07-31T07:10:03;1.98;;;0.73;;
54919;SDS011;63804;53.120;8.764;2023-07-31T07:12:32;2.00;;;0.70;;
54919;SDS011;63804;53.120;8.764;2023-07-31T07:15:00;1.13;;;0.85;;
54919;SDS011;63804;53.120;8.764;2023-07-31T07:17:28;3.47;;;1.00;;
54919;SDS011;63804;53.120;8.764;2023-07-31T07:20:00;1.40;;;0.70;;
54919;SDS011;63804;53.120;8.764;2023-07-31T07:22:28;1.77;;;1.08;;
54919;SDS011;63804;53.120;8.764;2023-07-31T07:24:58;1.88;;;0.90;;
54919;SDS011;63804;53.120;8.764;2023-07-31T07:27:26;2.05;;;1.00;;
54919;SDS011;63804;53.120;8.764;2023-07-31T07:29:53;1.90;;;0.98;;
54919;SDS011;63804;53.120;8.764;2023-07-31T07:32:21;1.48;;;0.90;;
54919;SDS011;63804;53.120;8.764;2023-07-31T07:34:48;2.35;;;1.10;;
54919;SDS011;63804;53.120;8.764;2023-07-31T07:37:16;1.42;;;0.90;;
54919;SDS011;63804;53.120;8.764;2023-07-31T07:39:43;2.35;;;1.17;;
54919;SDS011;63804;53.120;8.764;2023-07-31T07:42:11;2.05;;;1.17;;
54919;SDS011;63804;53.120;8.764;2023-07-31T07:44:38;2.65;;;1.42;;
54919;SDS011;63804;53.120;8.764;2023-07-31T07:47:06;5.00;;;1.58;;
54919;SDS011;63804;53.120;8.764;2023-07-31T07:49:34;2.97;;;1.45;;
54919;SDS011;63804;53.120;8.764;2023-07-31T07:52:02;3.88;;;1.80;;
54919;SDS011;63804;53.120;8.764;2023-07-31T07:54:30;6.35;;;2.10;;
54919;SDS011;63804;53.120;8.764;2023-07-31T07:56:59;6.85;;;2.70;;
54919;SDS011;63804;53.120;8.764;2023-07-31T07:59:26;7.55;;;2.85;;
54919;SDS011;63804;53.120;8.764;2023-07-31T08:01:54;7.32;;;3.15;;
54919;SDS011;63804;53.120;8.764;2023-07-31T08:04:21;9.80;;;3.60;;
54919;SDS011;63804;53.120;8.764;2023-07-31T08:06:48;10.70;;;3.75;;
54919;SDS011;63804;53.120;8.764;2023-07-31T08:09:16;9.20;;;4.07;;
54919;SDS011;63804;53.120;8.764;2023-07-31T08:11:43;9.13;;;4.32;;
54919;SDS011;63804;53.120;8.764;2023-07-31T08:14:11;12.32;;;4.63;;
54919;SDS011;63804;53.120;8.764;2023-07-31T08:16:38;12.88;;;4.82;;
54919;SDS011;63804;53.120;8.764;2023-07-31T08:19:06;13.05;;;5.38;;
54919;SDS011;63804;53.120;8.764;2023-07-31T08:21:34;9.82;;;5.25;;
54919;SDS011;63804;53.120;8.764;2023-07-31T08:24:01;13.90;;;5.60;;
54919;SDS011;63804;53.120;8.764;2023-07-31T08:26:28;13.05;;;5.65;;
54919;SDS011;63804;53.120;8.764;2023-07-31T08:28:56;16.70;;;5.45;;
54919;SDS011;63804;53.120;8.764;2023-07-31T08:31:24;16.83;;;6.00;;
54919;SDS011;63804;53.120;8.764;2023-07-31T08:33:51;18.73;;;6.90;;
54919;SDS011;63804;53.120;8.764;2023-07-31T08:36:19;18.23;;;6.68;;
54919;SDS011;63804;53.120;8.764;2023-07-31T08:38:46;13.20;;;6.28;;
54919;SDS011;63804;53.120;8.764;2023-07-31T08:41:14;14.70;;;6.43;;
54919;SDS011;63804;53.120;8.764;2023-07-31T08:43:44;13.68;;;6.15;;
54919;SDS011;63804;53.120;8.764;2023-07-31T08:46:13;14.25;;;6.80;;
54919;SDS011;63804;53.120;8.764;2023-07-31T08:48:41;15.73;;;6.47;;
54919;SDS011;63804;53.120;8.764;2023-07-31T08:51:09;18.25;;;6.85;;
54919;SDS011;63804;53.120;8.764;2023-07-31T08:53:37;19.70;;;7.28;;
54919;SDS011;63804;53.120;8.764;2023-07-31T08:56:06;17.17;;;6.90;;
54919;SDS011;63804;53.120;8.764;2023-07-31T08:58:34;19.73;;;6.95;;
54919;SDS011;63804;53.120;8.764;2023-07-31T09:01:03;15.35;;;6.50;;
54919;SDS011;63804;53.120;8.764;2023-07-31T09:03:33;15.55;;;6.55;;
54919;SDS011;63804;53.120;8.764;2023-07-31T09:06:03;14.20;;;6.85;;
54919;SDS011;63804;53.120;8.764;2023-07-31T09:08:33;16.95;;;6.90;;
54919;SDS011;63804;53.120;8.764;2023-07-31T09:11:01;18.23;;;7.18;;
54919;SDS011;63804;53.120;8.764;2023-07-31T09:13:30;14.70;;;6.65;;
54919;SDS011;63804;53.120;8.764;2023-07-31T09:15:58;18.02;;;6.07;;
54919;SDS011;63804;53.120;8.764;2023-07-31T09:18:26;16.85;;;6.38;;
54919;SDS011;63804;53.120;8.764;2023-07-31T09:21:00;14.60;;;5.53;;
54919;SDS011;63804;53.120;8.764;2023-07-31T09:23:39;14.40;;;5.68;;
54919;SDS011;63804;53.120;8.764;2023-07-31T09:26:08;13.93;;;5.72;;
54919;SDS011;63804;53.120;8.764;2023-07-31T09:28:36;11.80;;;4.38;;
54919;SDS011;63804;53.120;8.764;2023-07-31T09:31:04;12.82;;;4.78;;
54919;SDS011;63804;53.120;8.764;2023-07-31T09:33:31;9.82;;;4.30;;
54919;SDS011;63804;53.120;8.764;2023-07-31T09:35:59;11.23;;;4.00;;
54919;SDS011;63804;53.120;8.764;2023-07-31T09:38:28;8.90;;;4.00;;
54919;SDS011;63804;53.120;8.764;2023-07-31T09:40:55;9.75;;;3.72;;
54919;SDS011;63804;53.120;8.764;2023-07-31T09:43:26;7.45;;;3.60;;
54919;SDS011;63804;53.120;8.764;2023-07-31T09:45:55;7.45;;;3.78;;
54919;SDS011;63804;53.120;8.764;2023-07-31T09:48:24;10.73;;;4.00;;
54919;SDS011;63804;53.120;8.764;2023-07-31T09:50:54;11.10;;;4.32;;
54919;SDS011;63804;53.120;8.764;2023-07-31T09:53:28;11.73;;;4.07;;
54919;SDS011;63804;53.120;8.764;2023-07-31T09:56:00;11.35;;;3.85;;
54919;SDS011;63804;53.120;8.764;2023-07-31T09:58:29;9.05;;;4.32;;
54919;SDS011;63804;53.120;8.764;2023-07-31T10:00:57;9.80;;;4.10;;
54919;SDS011;63804;53.120;8.764;2023-07-31T10:03:26;9.77;;;3.70;;
54919;SDS011;63804;53.120;8.764;2023-07-31T10:05:56;8.35;;;3.60;;
54919;SDS011;63804;53.120;8.764;2023-07-31T10:08:29;11.13;;;4.03;;
54919;SDS011;63804;53.120;8.764;2023-07-31T10:10:59;10.20;;;3.67;;
54919;SDS011;63804;53.120;8.764;2023-07-31T10:13:29;6.30;;;2.88;;
54919;SDS011;63804;53.120;8.764;2023-07-31T10:15:58;9.23;;;3.17;;
54919;SDS011;63804;53.120;8.764;2023-07-31T10:18:28;7.50;;;2.83;;
54919;SDS011;63804;53.120;8.764;2023-07-31T10:20:55;7.95;;;3.13;;
54919;SDS011;63804;53.120;8.764;2023-07-31T10:23:24;6.90;;;3.08;;
54919;SDS011;63804;53.120;8.764;2023-07-31T10:25:54;9.40;;;3.38;;
54919;SDS011;63804;53.120;8.764;2023-07-31T10:28:24;7.30;;;2.92;;
54919;SDS011;63804;53.120;8.764;2023-07-31T10:30:53;6.78;;;2.42;;
54919;SDS011;63804;53.120;8.764;2023-07-31T10:33:24;8.23;;;2.75;;
54919;SDS011;63804;53.120;8.764;2023-07-31T10:36:05;6.20;;;2.40;;
54919;SDS011;63804;53.120;8.764;2023-07-31T10:38:39;6.90;;;2.28;;
54919;SDS011;63804;53.120;8.764;2023-07-31T10:41:10;7.60;;;2.40;;
54919;SDS011;63804;53.120;8.764;2023-07-31T10:43:37;4.65;;;2.28;;
54919;SDS011;63804;53.120;8.764;2023-07-31T10:46:08;4.05;;;2.25;;
54919;SDS011;63804;53.120;8.764;2023-07-31T10:48:39;5.53;;;2.20;;
54919;SDS011;63804;53.120;8.764;2023-07-31T10:51:09;3.85;;;1.80;;
54919;SDS011;63804;53.120;8.764;2023-07-31T10:53:39;4.60;;;1.88;;
54919;SDS011;63804;53.120;8.764;2023-07-31T10:56:08;4.45;;;1.65;;
54919;SDS011;63804;53.120;8.764;2023-07-31T10:58:36;3.90;;;1.63;;
54919;SDS011;63804;53.120;8.764;2023-07-31T11:01:05;3.22;;;1.60;;
54919;SDS011;63804;53.120;8.764;2023-07-31T11:06:14;3.63;;;1.48;;
54919;SDS011;63804;53.120;8.764;2023-07-31T11:08:46;3.80;;;1.30;;
54919;SDS011;63804;53.120;8.764;2023-07-31T11:11:18;3.00;;;1.33;;
54919;SDS011;63804;53.120;8.764;2023-07-31T11:13:51;2.13;;;1.50;;
54919;SDS011;63804;53.120;8.764;2023-07-31T11:16:21;3.10;;;1.20;;
54919;SDS011;63804;53.120;8.764;2023-07-31T11:18:50;2.88;;;1.00;;
54919;SDS011;63804;53.120;8.764;2023-07-31T11:21:20;2.67;;;0.93;;
54919;SDS011;63804;53.120;8.764;2023-07-31T11:23:51;2.80;;;0.75;;
54919;SDS011;63804;53.120;8.764;2023-07-31T11:26:20;0.95;;;0.85;;
54919;SDS011;63804;53.120;8.764;2023-07-31T11:28:48;1.13;;;0.82;;
54919;SDS011;63804;53.120;8.764;2023-07-31T11:31:16;2.60;;;0.85;;
54919;SDS011;63804;53.120;8.764;2023-07-31T11:33:45;2.15;;;0.77;;
54919;SDS011;63804;53.120;8.764;2023-07-31T11:36:16;1.52;;;0.80;;
54919;SDS011;63804;53.120;8.764;2023-07-31T11:38:45;0.73;;;0.60;;
54919;SDS011;63804;53.120;8.764;2023-07-31T11:41:16;1.25;;;0.60;;
54919;SDS011;63804;53.120;8.764;2023-07-31T11:43:45;3.15;;;0.82;;
54919;SDS011;63804;53.120;8.764;2023-07-31T11:46:14;0.75;;;0.47;;
54919;SDS011;63804;53.120;8.764;2023-07-31T11:48:42;0.95;;;0.57;;
54919;SDS011;63804;53.120;8.764;2023-07-31T11:51:10;1.50;;;0.68;;
54919;SDS011;63804;53.120;8.764;2023-07-31T11:53:42;1.00;;;0.63;;
54919;SDS011;63804;53.120;8.764;2023-07-31T11:56:16;0.90;;;0.70;;
54919;SDS011;63804;53.120;8.764;2023-07-31T11:58:49;2.25;;;0.85;;
54919;SDS011;63804;53.120;8.764;2023-07-31T12:01:21;2.55;;;0.90;;
54919;SDS011;63804;53.120;8.764;2023-07-31T12:03:49;1.02;;;0.75;;
54919;SDS011;63804;53.120;8.764;2023-07-31T12:06:18;3.38;;;0.93;;
54919;SDS011;63804;53.120;8.764;2023-07-31T12:08:48;0.68;;;0.60;;
54919;SDS011;63804;53.120;8.764;2023-07-31T12:11:16;4.05;;;0.60;;
54919;SDS011;63804;53.120;8.764;2023-07-31T12:13:45;0.50;;;0.50;;
54919;SDS011;63804;53.120;8.764;2023-07-31T12:16:12;1.33;;;0.70;;
54919;SDS011;63804;53.120;8.764;2023-07-31T12:18:40;1.30;;;0.52;;
54919;SDS011;63804;53.120;8.764;2023-07-31T12:21:08;0.82;;;0.40;;
54919;SDS011;63804;53.120;8.764;2023-07-31T12:23:36;1.63;;;0.50;;
54919;SDS011;63804;53.120;8.764;2023-07-31T12:26:05;1.02;;;0.65;;
54919;SDS011;63804;53.120;8.764;2023-07-31T12:28:45;0.93;;;0.63;;
54919;SDS011;63804;53.120;8.764;2023-07-31T12:31:15;0.50;;;0.50;;
54919;SDS011;63804;53.120;8.764;2023-07-31T12:33:47;0.93;;;0.60;;
54919;SDS011;63804;53.120;8.764;2023-07-31T12:36:18;0.50;;;0.50;;
54919;SDS011;63804;53.120;8.764;2023-07-31T12:38:49;1.55;;;0.60;;
54919;SDS011;63804;53.120;8.764;2023-07-31T12:41:17;1.67;;;1.00;;
54919;SDS011;63804;53.120;8.764;2023-07-31T12:43:45;2.53;;;0.98;;
54919;SDS011;63804;53.120;8.764;2023-07-31T12:46:13;4.65;;;1.00;;
54919;SDS011;63804;53.120;8.764;2023-07-31T12:48:41;1.75;;;0.65;;
54919;SDS011;63804;53.120;8.764;2023-07-31T12:51:08;1.50;;;0.70;;
54919;SDS011;63804;53.120;8.764;2023-07-31T12:53:36;0.80;;;0.80;;
54919;SDS011;63804;53.120;8.764;2023-07-31T12:56:03;1.23;;;0.80;;
54919;SDS011;63804;53.120;8.764;2023-07-31T12:58:30;1.23;;;0.80;;
54919;SDS011;63804;53.120;8.764;2023-07-31T13:00:58;2.13;;;1.00;;
54919;SDS011;63804;53.120;8.764;2023-07-31T13:03:25;3.25;;;1.10;;
54919;SDS011;63804;53.120;8.764;2023-07-31T13:05:53;1.10;;;0.90;;
54919;SDS011;63804;53.120;8.764;2023-07-31T13:08:21;1.38;;;0.90;;
54919;SDS011;63804;53.120;8.764;2023-07-31T13:10:48;1.98;;;1.00;;
54919;SDS011;63804;53.120;8.764;2023-07-31T13:13:16;1.52;;;0.82;;
54919;SDS011;63804;53.120;8.764;2023-07-31T13:15:43;3.67;;;0.90;;
54919;SDS011;63804;53.120;8.764;2023-07-31T13:18:11;1.52;;;0.95;;
54919;SDS011;63804;53.120;8.764;2023-07-31T13:20:39;2.10;;;1.30;;
54919;SDS011;63804;53.120;8.764;2023-07-31T13:23:06;3.88;;;1.10;;
54919;SDS011;63804;53.120;8.764;2023-07-31T13:25:34;1.08;;;0.98;;
54919;SDS011;63804;53.120;8.764;2023-07-31T13:28:01;2.58;;;1.25;;
54919;SDS011;63804;53.120;8.764;2023-07-31T13:30:29;2.10;;;1.30;;
54919;SDS011;63804;53.120;8.764;2023-07-31T13:32:57;1.25;;;0.98;;
54919;SDS011;63804;53.120;8.764;2023-07-31T13:35:24;4.55;;;1.40;;
54919;SDS011;63804;53.120;8.764;2023-07-31T13:37:52;4.25;;;1.92;;
54919;SDS011;63804;53.120;8.764;2023-07-31T13:40:19;3.47;;;1.40;;
54919;SDS011;63804;53.120;8.764;2023-07-31T13:42:47;2.03;;;1.40;;
54919;SDS011;63804;53.120;8.764;2023-07-31T13:45:15;3.75;;;1.60;;
54919;SDS011;63804;53.120;8.764;2023-07-31T13:47:42;2.92;;;1.50;;
54919;SDS011;63804;53.120;8.764;2023-07-31T13:50:10;3.15;;;2.08;;
54919;SDS011;63804;53.120;8.764;2023-07-31T13:52:37;3.22;;;2.42;;
54919;SDS011;63804;53.120;8.764;2023-07-31T13:55:04;3.50;;;2.22;;
54919;SDS011;63804;53.120;8.764;2023-07-31T13:57:32;2.90;;;2.08;;
54919;SDS011;63804;53.120;8.764;2023-07-31T14:00:00;4.03;;;2.10;;
54919;SDS011;63804;53.120;8.764;2023-07-31T14:02:28;3.65;;;2.38;;
54919;SDS011;63804;53.120;8.764;2023-07-31T14:04:55;5.07;;;2.55;;
54919;SDS011;63804;53.120;8.764;2023-07-31T14:07:22;7.18;;;2.70;;
54919;SDS011;63804;53.120;8.764;2023-07-31T14:09:50;5.38;;;2.53;;
54919;SDS011;63804;53.120;8.764;2023-07-31T14:12:17;4.75;;;2.58;;
54919;SDS011;63804;53.120;8.764;2023-07-31T14:15:04;4.30;;;2.47;;
54919;SDS011;63804;53.120;8.764;2023-07-31T14:17:32;4.68;;;2.60;;
54919;SDS011;63804;53.120;8.764;2023-07-31T14:20:00;4.10;;;2.58;;
54919;SDS011;63804;53.120;8.764;2023-07-31T14:22:29;4.97;;;3.30;;
54919;SDS011;63804;53.120;8.764;2023-07-31T14:24:57;6.63;;;3.75;;
54919;SDS011;63804;53.120;8.764;2023-07-31T14:27:24;7.93;;;3.95;;
54919;SDS011;63804;53.120;8.764;2023-07-31T14:29:51;8.40;;;4.47;;
54919;SDS011;63804;53.120;8.764;2023-07-31T14:32:19;7.63;;;4.70;;
54919;SDS011;63804;53.120;8.764;2023-07-31T14:34:46;7.55;;;4.05;;
54919;SDS011;63804;53.120;8.764;2023-07-31T14:37:13;7.35;;;4.53;;
54919;SDS011;63804;53.120;8.764;2023-07-31T14:39:41;6.53;;;4.20;;
54919;SDS011;63804;53.120;8.764;2023-07-31T14:42:08;6.95;;;4.47;;
54919;SDS011;63804;53.120;8.764;2023-07-31T14:44:36;10.18;;;4.50;;
54919;SDS011;63804;53.120;8.764;2023-07-31T14:47:03;8.15;;;4.38;;
54919;SDS011;63804;53.120;8.764;2023-07-31T14:49:31;7.18;;;4.35;;
54919;SDS011;63804;53.120;8.764;2023-07-31T14:51:58;6.60;;;4.45;;
54919;SDS011;63804;53.120;8.764;2023-07-31T14:54:26;7.50;;;4.45;;
54919;SDS011;63804;53.120;8.764;2023-07-31T14:56:53;7.50;;;4.95;;
54919;SDS011;63804;53.120;8.764;2023-07-31T14:59:20;7.68;;;4.95;;
54919;SDS011;63804;53.120;8.764;2023-07-31T15:01:47;7.82;;;4.90;;